createdAt,value
2022-08-10T00:05:52.946Z,45.23
2022-08-10T00:11:25.371Z,45.24
2022-08-10T00:16:56.417Z,44.78
2022-08-10T00:22:27.637Z,45.07
2022-08-10T00:28:03.108Z,45.00
2022-08-10T00:33:34.984Z,45.15
2022-08-10T00:39:07.289Z,45.58
2022-08-10T00:44:46.606Z,45.30
2022-08-10T00:50:20.838Z,45.36
2022-08-10T00:57:12.513Z,45.61
2022-08-10T01:02:08.357Z,45.49
2022-08-10T01:08:07.839Z,45.53
2022-08-10T01:13:38.748Z,45.69
2022-08-10T01:19:24.051Z,45.43
2022-08-10T01:25:01.083Z,45.39
2022-08-10T01:30:33.153Z,45.29
2022-08-10T01:36:18.723Z,45.14
2022-08-10T01:41:52.355Z,44.91
2022-08-10T01:47:45.819Z,45.28
2022-08-10T01:53:22.820Z,45.49
2022-08-10T01:59:03.225Z,45.50
2022-08-10T02:04:36.797Z,45.24
2022-08-10T02:10:11.430Z,44.89
2022-08-10T02:16:01.620Z,45.38
2022-08-10T02:21:33.621Z,45.32
2022-08-10T02:27:06.019Z,45.42
2022-08-10T02:32:38.770Z,45.33
2022-08-10T02:38:09.946Z,45.34
2022-08-10T02:45:21.566Z,45.62
2022-08-10T02:49:43.562Z,46.03
2022-08-10T02:55:27.182Z,45.68
2022-08-10T03:01:00.272Z,45.89
2022-08-10T03:06:37.494Z,45.90
2022-08-10T03:12:35.897Z,45.66
2022-08-10T03:18:02.817Z,45.54
2022-08-10T03:23:34.190Z,46.27
2022-08-10T03:29:06.118Z,46.39
2022-08-10T03:34:37.539Z,46.49
2022-08-10T03:40:09.667Z,45.74
2022-08-10T03:45:48.595Z,46.35
2022-08-10T03:51:27.089Z,46.41
2022-08-10T03:56:57.992Z,46.12
2022-08-10T04:02:42.172Z,46.02
2022-08-10T04:08:19.619Z,45.91
2022-08-10T04:13:50.966Z,46.29
2022-08-10T04:19:22.469Z,46.18
2022-08-10T04:24:57.708Z,46.29
2022-08-10T04:30:29.379Z,46.67
2022-08-10T04:36:01.312Z,46.13
2022-08-10T04:41:33.056Z,46.53
2022-08-10T04:47:04.287Z,46.37
2022-08-10T04:52:36.415Z,46.32
2022-08-10T04:58:07.460Z,50.11
2022-08-10T05:04:34.028Z,51.41
2022-08-10T05:09:29.280Z,51.58
2022-08-10T05:15:00.574Z,51.82
2022-08-10T05:20:31.707Z,52.61
2022-08-10T05:26:02.857Z,52.43
2022-08-10T05:31:34.076Z,53.99
2022-08-10T05:37:06.700Z,54.39
2022-08-10T05:42:57.930Z,54.69
2022-08-10T05:48:55.837Z,54.56
2022-08-10T05:54:20.132Z,54.83
2022-08-10T06:00:30.915Z,55.02
2022-08-10T06:05:48.614Z,56.72
2022-08-10T06:12:24.558Z,56.78
2022-08-10T06:17:13.827Z,56.25
2022-08-10T06:22:44.862Z,54.49
2022-08-10T06:28:17.312Z,54.15
2022-08-10T06:33:48.706Z,52.38
2022-08-10T06:39:36.458Z,52.51
2022-08-10T06:45:13.554Z,51.11
2022-08-10T06:50:58.183Z,51.02
2022-08-10T06:56:35.887Z,50.88
2022-08-10T07:02:14.898Z,51.77
2022-08-10T07:07:47.734Z,49.76
2022-08-10T07:14:16.843Z,50.40
2022-08-10T07:19:12.024Z,50.23
2022-08-10T07:24:44.429Z,48.73
2022-08-10T07:30:15.344Z,48.51
2022-08-10T07:35:48.110Z,48.14
2022-08-10T07:41:20.674Z,46.75
2022-08-10T07:46:53.006Z,46.24
2022-08-10T07:52:24.330Z,45.83
2022-08-10T07:57:57.158Z,45.97
2022-08-10T08:03:30.176Z,45.76
2022-08-10T08:09:01.924Z,44.97
2022-08-10T08:14:34.326Z,45.25
2022-08-10T08:20:07.487Z,45.19
2022-08-10T08:25:39.081Z,44.26
2022-08-10T08:31:10.204Z,44.50
2022-08-10T08:36:41.908Z,44.46
2022-08-10T08:42:28.443Z,43.95
2022-08-10T08:48:23.628Z,43.22
2022-08-10T08:54:20.561Z,42.71
2022-08-10T09:00:02.117Z,42.87
2022-08-10T09:05:58.366Z,42.66
2022-08-10T09:11:49.169Z,42.36
2022-08-10T09:17:37.591Z,42.06
2022-08-10T09:23:14.944Z,41.61
2022-08-10T09:28:46.293Z,41.66
2022-08-10T09:36:25.389Z,41.43
2022-08-10T09:41:04.170Z,41.03
2022-08-10T09:46:46.397Z,41.61
2022-08-10T09:52:59.227Z,41.87
2022-08-10T09:58:50.633Z,41.73
2022-08-10T10:04:50.647Z,40.64
2022-08-10T10:10:30.938Z,39.63
2022-08-10T10:16:33.309Z,39.63
2022-08-10T10:22:35.117Z,40.30
2022-08-10T10:34:51.250Z,40.29
2022-08-10T10:40:24.581Z,40.88
2022-08-10T10:46:23.522Z,42.29
2022-08-10T10:52:03.213Z,40.79
2022-08-10T10:57:58.467Z,39.62
2022-08-10T11:04:09.734Z,39.37
2022-08-10T11:10:32.105Z,39.74
2022-08-10T11:16:23.016Z,39.63
2022-08-10T11:22:19.262Z,39.50
2022-08-10T11:27:53.335Z,39.09
2022-08-10T11:34:11.326Z,38.62
2022-08-10T11:39:49.464Z,38.27
2022-08-10T11:45:35.346Z,38.08
2022-08-10T11:51:12.031Z,38.06
2022-08-10T11:56:49.315Z,37.93
2022-08-10T12:02:22.905Z,37.79
2022-08-10T12:10:01.775Z,37.71
2022-08-10T12:14:28.661Z,37.74
2022-08-10T12:20:07.427Z,37.49
2022-08-10T12:25:56.552Z,37.31
2022-08-10T12:31:41.400Z,37.22
2022-08-10T12:37:12.166Z,37.32
2022-08-10T12:44:03.785Z,37.15
2022-08-10T12:49:04.170Z,37.09
2022-08-10T12:54:37.093Z,36.91
2022-08-10T13:00:09.912Z,36.68
2022-08-10T13:05:57.562Z,36.63
2022-08-10T13:12:35.041Z,36.68
2022-08-10T13:17:32.819Z,36.59
2022-08-10T13:23:27.186Z,36.75
2022-08-10T13:29:01.026Z,36.30
2022-08-10T13:34:43.678Z,36.35
2022-08-10T13:40:16.941Z,36.96
2022-08-10T13:45:50.146Z,36.39
2022-08-10T13:51:53.957Z,36.32
2022-08-10T13:57:38.395Z,36.51
2022-08-10T14:03:18.958Z,36.74
2022-08-10T14:09:11.758Z,36.98
2022-08-10T14:14:43.634Z,37.04
2022-08-10T14:20:20.883Z,37.07
2022-08-10T14:25:56.589Z,37.39
2022-08-10T14:31:30.977Z,37.48
2022-08-10T14:37:04.037Z,37.53
2022-08-10T14:42:38.140Z,37.69
2022-08-10T14:48:31.977Z,37.63
2022-08-10T14:54:06.273Z,37.95
2022-08-10T15:00:23.019Z,38.06
2022-08-10T15:05:39.856Z,38.33
2022-08-10T15:12:14.080Z,38.17
2022-08-10T15:17:05.768Z,38.58
2022-08-10T15:22:40.602Z,38.38
2022-08-10T15:28:16.712Z,38.44
2022-08-10T15:34:10.268Z,38.36
2022-08-10T15:40:23.814Z,38.69
2022-08-10T15:45:55.592Z,38.33
2022-08-10T15:51:54.343Z,38.18
2022-08-10T15:57:28.273Z,38.07
2022-08-10T16:03:13.158Z,38.26
2022-08-10T16:08:56.610Z,38.06
2022-08-10T16:14:31.939Z,38.03
2022-08-10T16:20:05.440Z,38.16
2022-08-10T16:25:48.517Z,38.21
2022-08-10T16:31:27.182Z,38.02
2022-08-10T16:36:59.089Z,37.96
2022-08-10T16:42:32.083Z,38.13
2022-08-10T16:48:05.251Z,38.22
2022-08-10T16:53:42.445Z,38.77
2022-08-10T16:59:17.509Z,38.88
2022-08-10T17:04:52.029Z,38.82
2022-08-10T17:10:23.575Z,38.93
2022-08-10T17:16:01.588Z,38.74
2022-08-10T17:21:36.624Z,39.16
2022-08-10T17:28:05.150Z,39.20
2022-08-10T17:33:14.397Z,39.26
2022-08-10T17:38:50.617Z,39.67
2022-08-10T17:44:22.988Z,39.78
2022-08-10T17:49:57.367Z,39.68
2022-08-10T17:55:34.335Z,39.81
2022-08-10T18:01:38.399Z,39.82
2022-08-10T18:06:59.945Z,39.03
2022-08-10T18:12:39.042Z,39.72
2022-08-10T18:18:12.950Z,39.56
2022-08-10T18:23:44.851Z,39.59
2022-08-10T18:29:27.807Z,39.49
2022-08-10T18:35:00.881Z,39.47
2022-08-10T18:40:38.470Z,39.51
2022-08-10T18:46:15.069Z,39.39
2022-08-10T18:51:47.472Z,39.63
2022-08-10T18:57:24.818Z,39.63
2022-08-10T19:03:23.137Z,39.71
2022-08-10T19:09:46.135Z,39.61
2022-08-10T19:15:24.085Z,39.62
2022-08-10T19:21:23.944Z,39.61
2022-08-10T19:27:04.419Z,39.49
2022-08-10T19:33:22.974Z,39.59
2022-08-10T19:39:09.091Z,39.67
2022-08-10T19:44:53.203Z,39.65
2022-08-10T19:50:59.740Z,39.66
2022-08-10T19:57:05.428Z,39.87
2022-08-10T20:02:59.053Z,39.82
2022-08-10T20:09:01.153Z,39.82
2022-08-10T20:14:38.408Z,40.16
2022-08-10T20:20:13.989Z,39.47
2022-08-10T20:25:54.608Z,39.67
2022-08-10T20:31:47.458Z,40.34
2022-08-10T20:38:01.994Z,40.29
2022-08-10T20:43:22.650Z,39.88
2022-08-10T20:49:05.159Z,40.10
2022-08-10T20:54:51.058Z,40.31
2022-08-10T21:00:23.559Z,40.16
2022-08-10T21:05:59.206Z,40.75
2022-08-10T21:12:03.892Z,40.82
2022-08-10T21:17:50.508Z,40.91
2022-08-10T21:23:30.635Z,41.03
2022-08-10T21:29:37.606Z,40.81
2022-08-10T21:35:36.481Z,41.05
2022-08-10T21:41:56.908Z,40.99
2022-08-10T21:48:06.966Z,41.29
2022-08-10T21:54:14.057Z,41.75
2022-08-10T22:00:45.541Z,41.30
2022-08-10T22:06:41.160Z,41.68
2022-08-10T22:12:51.443Z,41.57
2022-08-10T22:19:01.836Z,41.89
2022-08-10T22:25:17.794Z,41.89
2022-08-10T22:31:40.777Z,41.78
2022-08-10T22:38:12.055Z,42.06
2022-08-10T22:44:01.454Z,42.35
2022-08-10T22:49:33.001Z,42.36
2022-08-10T22:55:34.044Z,42.26
2022-08-10T23:01:40.736Z,42.33
2022-08-10T23:07:18.484Z,42.37
2022-08-10T23:13:11.609Z,42.59
2022-08-10T23:19:09.555Z,42.97
2022-08-10T23:24:53.568Z,43.21
2022-08-10T23:30:33.953Z,42.96
2022-08-10T23:36:34.464Z,42.94
2022-08-10T23:42:06.982Z,43.30
2022-08-10T23:47:43.100Z,43.30
2022-08-10T23:53:14.411Z,42.95
2022-08-10T23:58:51.557Z,43.60
